sensor_id;sensor_type;location;lat;lon;timestamp;temperature;humidity
41447;DHT22;27185;52.040;4.490;2023-05-10T00:02:14;13.40;99.90
41447;DHT22;27185;52.040;4.490;2023-05-10T00:05:01;13.40;99.90
41447;DHT22;27185;52.040;4.490;2023-05-10T00:07:46;13.40;99.90
41447;DHT22;27185;52.040;4.490;2023-05-10T00:10:32;13.40;99.90
41447;DHT22;27185;52.040;4.490;2023-05-10T00:13:17;13.30;99.90
41447;DHT22;27185;52.040;4.490;2023-05-10T00:16:03;13.30;99.90
41447;DHT22;27185;52.040;4.490;2023-05-10T00:18:49;13.30;99.90
41447;DHT22;27185;52.040;4.490;2023-05-10T00:21:34;13.20;99.90
41447;DHT22;27185;52.040;4.490;2023-05-10T00:24:20;13.20;99.90
41447;DHT22;27185;52.040;4.490;2023-05-10T00:27:05;13.20;99.90
41447;DHT22;27185;52.040;4.490;2023-05-10T00:29:51;13.20;99.90
41447;DHT22;27185;52.040;4.490;2023-05-10T00:32:36;13.20;99.90
41447;DHT22;27185;52.040;4.490;2023-05-10T00:35:22;13.10;99.90
41447;DHT22;27185;52.040;4.490;2023-05-10T00:38:08;13.10;99.90
41447;DHT22;27185;52.040;4.490;2023-05-10T00:40:53;13.10;99.90
41447;DHT22;27185;52.040;4.490;2023-05-10T00:43:39;13.10;99.90
41447;DHT22;27185;52.040;4.490;2023-05-10T00:46:25;13.00;99.90
41447;DHT22;27185;52.040;4.490;2023-05-10T00:49:11;13.00;99.90
41447;DHT22;27185;52.040;4.490;2023-05-10T00:51:57;13.00;99.90
41447;DHT22;27185;52.040;4.490;2023-05-10T00:54:43;13.00;99.90
41447;DHT22;27185;52.040;4.490;2023-05-10T00:57:28;13.00;99.90
41447;DHT22;27185;52.040;4.490;2023-05-10T01:00:14;13.00;99.90
41447;DHT22;27185;52.040;4.490;2023-05-10T01:03:03;13.00;99.90
41447;DHT22;27185;52.040;4.490;2023-05-10T01:05:49;13.10;99.90
41447;DHT22;27185;52.040;4.490;2023-05-10T01:08:35;13.20;99.90
41447;DHT22;27185;52.040;4.490;2023-05-10T01:11:21;13.20;99.90
41447;DHT22;27185;52.040;4.490;2023-05-10T01:14:07;13.30;99.90
41447;DHT22;27185;52.040;4.490;2023-05-10T01:16:53;13.30;99.90
41447;DHT22;27185;52.040;4.490;2023-05-10T01:19:39;13.40;99.90
41447;DHT22;27185;52.040;4.490;2023-05-10T01:22:41;13.50;99.90
41447;DHT22;27185;52.040;4.490;2023-05-10T01:25:44;13.60;99.90
41447;DHT22;27185;52.040;4.490;2023-05-10T01:28:58;13.60;99.90
41447;DHT22;27185;52.040;4.490;2023-05-10T01:38:04;13.90;99.90
41447;DHT22;27185;52.040;4.490;2023-05-10T01:47:05;14.00;99.90
41447;DHT22;27185;52.040;4.490;2023-05-10T01:49:54;14.00;99.90
41447;DHT22;27185;52.040;4.490;2023-05-10T01:52:55;14.00;99.90
41447;DHT22;27185;52.040;4.490;2023-05-10T01:55:46;14.10;99.90
41447;DHT22;27185;52.040;4.490;2023-05-10T01:58:33;14.10;99.90
41447;DHT22;27185;52.040;4.490;2023-05-10T02:01:20;14.20;99.90
41447;DHT22;27185;52.040;4.490;2023-05-10T02:04:08;14.20;99.90
41447;DHT22;27185;52.040;4.490;2023-05-10T02:06:55;14.30;99.90
41447;DHT22;27185;52.040;4.490;2023-05-10T02:09:44;14.30;99.90
41447;DHT22;27185;52.040;4.490;2023-05-10T02:12:36;14.30;99.90
41447;DHT22;27185;52.040;4.490;2023-05-10T02:15:23;14.40;99.90
41447;DHT22;27185;52.040;4.490;2023-05-10T02:18:10;14.40;99.90
41447;DHT22;27185;52.040;4.490;2023-05-10T02:20:58;14.40;99.90
41447;DHT22;27185;52.040;4.490;2023-05-10T02:23:45;14.50;99.90
41447;DHT22;27185;52.040;4.490;2023-05-10T02:26:34;14.50;99.90
41447;DHT22;27185;52.040;4.490;2023-05-10T02:29:20;14.50;99.90
41447;DHT22;27185;52.040;4.490;2023-05-10T02:32:06;14.50;99.90
41447;DHT22;27185;52.040;4.490;2023-05-10T02:34:52;14.50;99.90
41447;DHT22;27185;52.040;4.490;2023-05-10T02:37:39;14.60;99.90
41447;DHT22;27185;52.040;4.490;2023-05-10T02:40:26;14.60;99.90
41447;DHT22;27185;52.040;4.490;2023-05-10T02:43:14;14.60;99.90
41447;DHT22;27185;52.040;4.490;2023-05-10T02:46:01;14.60;99.90
41447;DHT22;27185;52.040;4.490;2023-05-10T02:48:47;14.60;99.90
41447;DHT22;27185;52.040;4.490;2023-05-10T02:51:35;14.60;99.90
41447;DHT22;27185;52.040;4.490;2023-05-10T02:54:29;14.60;99.90
41447;DHT22;27185;52.040;4.490;2023-05-10T02:57:24;14.60;99.90
41447;DHT22;27185;52.040;4.490;2023-05-10T03:00:11;14.70;99.90
41447;DHT22;27185;52.040;4.490;2023-05-10T03:02:57;14.60;99.90
41447;DHT22;27185;52.040;4.490;2023-05-10T03:05:43;14.70;99.90
41447;DHT22;27185;52.040;4.490;2023-05-10T03:08:29;14.70;99.90
41447;DHT22;27185;52.040;4.490;2023-05-10T03:11:43;14.70;99.90
41447;DHT22;27185;52.040;4.490;2023-05-10T03:17:54;14.70;99.90
41447;DHT22;27185;52.040;4.490;2023-05-10T03:20:49;14.60;99.90
41447;DHT22;27185;52.040;4.490;2023-05-10T03:23:44;14.70;99.90
41447;DHT22;27185;52.040;4.490;2023-05-10T03:26:31;14.60;99.90
41447;DHT22;27185;52.040;4.490;2023-05-10T03:29:17;14.60;99.90
41447;DHT22;27185;52.040;4.490;2023-05-10T03:32:03;14.70;99.90
41447;DHT22;27185;52.040;4.490;2023-05-10T03:34:49;14.60;99.90
41447;DHT22;27185;52.040;4.490;2023-05-10T03:37:35;14.60;99.90
41447;DHT22;27185;52.040;4.490;2023-05-10T03:40:20;14.60;99.90
41447;DHT22;27185;52.040;4.490;2023-05-10T03:43:06;14.60;99.90
41447;DHT22;27185;52.040;4.490;2023-05-10T03:45:52;14.60;99.90
41447;DHT22;27185;52.040;4.490;2023-05-10T03:48:37;14.60;99.90
41447;DHT22;27185;52.040;4.490;2023-05-10T03:51:23;14.60;99.90
41447;DHT22;27185;52.040;4.490;2023-05-10T03:54:13;14.60;99.90
41447;DHT22;27185;52.040;4.490;2023-05-10T03:56:58;14.70;99.90
41447;DHT22;27185;52.040;4.490;2023-05-10T03:59:44;14.70;99.90
41447;DHT22;27185;52.040;4.490;2023-05-10T04:02:30;14.70;99.90
41447;DHT22;27185;52.040;4.490;2023-05-10T04:05:16;14.70;99.90
41447;DHT22;27185;52.040;4.490;2023-05-10T04:08:02;14.70;99.90
41447;DHT22;27185;52.040;4.490;2023-05-10T04:10:47;14.70;99.90
41447;DHT22;27185;52.040;4.490;2023-05-10T04:13:33;14.70;99.90
41447;DHT22;27185;52.040;4.490;2023-05-10T04:16:19;14.70;99.90
41447;DHT22;27185;52.040;4.490;2023-05-10T04:19:04;14.70;99.90
41447;DHT22;27185;52.040;4.490;2023-05-10T04:21:50;14.70;99.90
41447;DHT22;27185;52.040;4.490;2023-05-10T04:24:35;14.70;99.90
41447;DHT22;27185;52.040;4.490;2023-05-10T04:27:21;14.70;99.90
41447;DHT22;27185;52.040;4.490;2023-05-10T04:30:07;14.70;99.90
41447;DHT22;27185;52.040;4.490;2023-05-10T04:32:52;14.70;99.90
41447;DHT22;27185;52.040;4.490;2023-05-10T04:35:38;14.70;99.90
41447;DHT22;27185;52.040;4.490;2023-05-10T04:38:25;14.70;99.90
41447;DHT22;27185;52.040;4.490;2023-05-10T04:41:11;14.70;99.90
41447;DHT22;27185;52.040;4.490;2023-05-10T04:43:56;14.70;99.90
41447;DHT22;27185;52.040;4.490;2023-05-10T04:46:42;14.70;99.90
41447;DHT22;27185;52.040;4.490;2023-05-10T04:49:28;14.60;99.90
41447;DHT22;27185;52.040;4.490;2023-05-10T04:52:14;14.60;99.90
41447;DHT22;27185;52.040;4.490;2023-05-10T04:55:02;14.60;99.90
41447;DHT22;27185;52.040;4.490;2023-05-10T04:57:48;14.50;99.90
41447;DHT22;27185;52.040;4.490;2023-05-10T05:00:34;14.50;99.90
41447;DHT22;27185;52.040;4.490;2023-05-10T05:03:19;14.50;99.90
41447;DHT22;27185;52.040;4.490;2023-05-10T05:06:05;14.40;99.90
41447;DHT22;27185;52.040;4.490;2023-05-10T05:08:51;14.40;99.90
41447;DHT22;27185;52.040;4.490;2023-05-10T05:11:36;14.40;99.90
41447;DHT22;27185;52.040;4.490;2023-05-10T05:14:22;14.30;99.90
41447;DHT22;27185;52.040;4.490;2023-05-10T05:17:10;14.30;99.90
41447;DHT22;27185;52.040;4.490;2023-05-10T05:19:55;14.30;99.90
41447;DHT22;27185;52.040;4.490;2023-05-10T05:22:41;14.20;99.90
41447;DHT22;27185;52.040;4.490;2023-05-10T05:25:26;14.20;99.90
41447;DHT22;27185;52.040;4.490;2023-05-10T05:28:12;14.20;99.90
41447;DHT22;27185;52.040;4.490;2023-05-10T05:30:58;14.20;99.90
41447;DHT22;27185;52.040;4.490;2023-05-10T05:33:43;14.20;99.90
41447;DHT22;27185;52.040;4.490;2023-05-10T05:36:29;14.20;99.90
41447;DHT22;27185;52.040;4.490;2023-05-10T05:39:14;14.30;99.90
41447;DHT22;27185;52.040;4.490;2023-05-10T05:42:00;14.30;99.90
41447;DHT22;27185;52.040;4.490;2023-05-10T05:44:45;14.30;99.90
41447;DHT22;27185;52.040;4.490;2023-05-10T05:47:31;14.30;99.90
41447;DHT22;27185;52.040;4.490;2023-05-10T05:50:16;14.30;99.90
41447;DHT22;27185;52.040;4.490;2023-05-10T05:53:02;14.30;99.90
41447;DHT22;27185;52.040;4.490;2023-05-10T05:55:55;14.30;99.90
41447;DHT22;27185;52.040;4.490;2023-05-10T05:58:41;14.30;99.90
41447;DHT22;27185;52.040;4.490;2023-05-10T06:01:27;14.40;99.90
41447;DHT22;27185;52.040;4.490;2023-05-10T06:04:12;14.40;99.90
41447;DHT22;27185;52.040;4.490;2023-05-10T06:06:58;14.30;99.90
41447;DHT22;27185;52.040;4.490;2023-05-10T06:09:43;14.30;99.90
41447;DHT22;27185;52.040;4.490;2023-05-10T06:12:29;14.40;99.90
41447;DHT22;27185;52.040;4.490;2023-05-10T06:15:14;14.40;99.90
41447;DHT22;27185;52.040;4.490;2023-05-10T06:18:00;14.40;99.90
41447;DHT22;27185;52.040;4.490;2023-05-10T06:20:46;14.50;99.90
41447;DHT22;27185;52.040;4.490;2023-05-10T06:23:31;14.60;99.90
41447;DHT22;27185;52.040;4.490;2023-05-10T06:26:17;14.70;99.90
41447;DHT22;27185;52.040;4.490;2023-05-10T06:29:03;14.80;99.90
41447;DHT22;27185;52.040;4.490;2023-05-10T06:31:48;14.90;99.90
41447;DHT22;27185;52.040;4.490;2023-05-10T06:34:34;15.00;99.90
41447;DHT22;27185;52.040;4.490;2023-05-10T06:37:19;15.10;99.90
41447;DHT22;27185;52.040;4.490;2023-05-10T06:40:06;15.20;99.90
41447;DHT22;27185;52.040;4.490;2023-05-10T06:42:52;15.40;99.90
41447;DHT22;27185;52.040;4.490;2023-05-10T06:45:37;15.50;99.90
41447;DHT22;27185;52.040;4.490;2023-05-10T06:48:23;15.60;99.90
41447;DHT22;27185;52.040;4.490;2023-05-10T06:51:08;15.70;99.90
41447;DHT22;27185;52.040;4.490;2023-05-10T06:53:54;15.80;99.90
41447;DHT22;27185;52.040;4.490;2023-05-10T06:56:39;15.80;99.90
41447;DHT22;27185;52.040;4.490;2023-05-10T06:59:25;15.90;99.90
41447;DHT22;27185;52.040;4.490;2023-05-10T07:02:10;15.90;99.90
41447;DHT22;27185;52.040;4.490;2023-05-10T07:04:56;15.90;99.90
41447;DHT22;27185;52.040;4.490;2023-05-10T07:07:42;15.90;99.90
41447;DHT22;27185;52.040;4.490;2023-05-10T07:10:28;15.90;99.90
41447;DHT22;27185;52.040;4.490;2023-05-10T07:13:14;15.90;99.90
41447;DHT22;27185;52.040;4.490;2023-05-10T07:16:00;15.90;99.90
41447;DHT22;27185;52.040;4.490;2023-05-10T07:18:47;15.90;99.90
41447;DHT22;27185;52.040;4.490;2023-05-10T07:21:32;15.90;99.90
41447;DHT22;27185;52.040;4.490;2023-05-10T07:24:18;15.90;99.90
41447;DHT22;27185;52.040;4.490;2023-05-10T07:27:04;15.90;99.90
41447;DHT22;27185;52.040;4.490;2023-05-10T07:29:49;16.00;99.90
41447;DHT22;27185;52.040;4.490;2023-05-10T07:32:35;16.00;99.90
41447;DHT22;27185;52.040;4.490;2023-05-10T07:35:20;16.10;99.90
41447;DHT22;27185;52.040;4.490;2023-05-10T07:38:06;16.10;99.90
41447;DHT22;27185;52.040;4.490;2023-05-10T07:40:51;16.20;99.90
41447;DHT22;27185;52.040;4.490;2023-05-10T07:43:37;16.20;99.90
41447;DHT22;27185;52.040;4.490;2023-05-10T07:46:23;16.20;99.90
41447;DHT22;27185;52.040;4.490;2023-05-10T07:49:08;16.30;99.90
41447;DHT22;27185;52.040;4.490;2023-05-10T07:51:54;16.30;99.90
41447;DHT22;27185;52.040;4.490;2023-05-10T07:54:39;16.30;99.90
41447;DHT22;27185;52.040;4.490;2023-05-10T07:57:25;16.30;99.90
41447;DHT22;27185;52.040;4.490;2023-05-10T08:00:12;16.30;99.90
41447;DHT22;27185;52.040;4.490;2023-05-10T08:02:58;16.40;99.90
41447;DHT22;27185;52.040;4.490;2023-05-10T08:05:44;16.40;99.90
41447;DHT22;27185;52.040;4.490;2023-05-10T08:08:29;16.40;99.90
41447;DHT22;27185;52.040;4.490;2023-05-10T08:11:16;16.40;99.90
41447;DHT22;27185;52.040;4.490;2023-05-10T08:14:02;16.40;99.90
41447;DHT22;27185;52.040;4.490;2023-05-10T08:16:48;16.40;99.90
41447;DHT22;27185;52.040;4.490;2023-05-10T08:19:33;16.40;99.90
41447;DHT22;27185;52.040;4.490;2023-05-10T08:22:19;16.40;99.90
41447;DHT22;27185;52.040;4.490;2023-05-10T08:25:05;16.50;99.90
41447;DHT22;27185;52.040;4.490;2023-05-10T08:27:51;16.50;99.90
41447;DHT22;27185;52.040;4.490;2023-05-10T08:30:37;16.60;99.90
41447;DHT22;27185;52.040;4.490;2023-05-10T08:33:22;16.70;99.90
41447;DHT22;27185;52.040;4.490;2023-05-10T08:36:08;16.80;99.90
41447;DHT22;27185;52.040;4.490;2023-05-10T08:38:54;16.90;99.90
41447;DHT22;27185;52.040;4.490;2023-05-10T08:41:44;17.00;99.90
41447;DHT22;27185;52.040;4.490;2023-05-10T08:44:34;17.00;99.90
41447;DHT22;27185;52.040;4.490;2023-05-10T08:47:21;17.10;99.90
41447;DHT22;27185;52.040;4.490;2023-05-10T08:50:07;17.10;99.90
41447;DHT22;27185;52.040;4.490;2023-05-10T08:52:55;17.10;99.90
41447;DHT22;27185;52.040;4.490;2023-05-10T08:55:42;17.10;99.90
41447;DHT22;27185;52.040;4.490;2023-05-10T08:58:28;17.10;99.90
41447;DHT22;27185;52.040;4.490;2023-05-10T09:01:16;17.10;99.90
41447;DHT22;27185;52.040;4.490;2023-05-10T09:04:02;17.10;99.90
41447;DHT22;27185;52.040;4.490;2023-05-10T09:06:48;17.00;99.90
41447;DHT22;27185;52.040;4.490;2023-05-10T09:09:34;17.00;99.90
41447;DHT22;27185;52.040;4.490;2023-05-10T09:12:20;17.00;99.90
41447;DHT22;27185;52.040;4.490;2023-05-10T09:15:07;17.00;99.90
41447;DHT22;27185;52.040;4.490;2023-05-10T09:17:54;16.90;99.90
41447;DHT22;27185;52.040;4.490;2023-05-10T09:20:40;17.00;99.90
41447;DHT22;27185;52.040;4.490;2023-05-10T09:23:26;17.00;99.90
41447;DHT22;27185;52.040;4.490;2023-05-10T09:26:22;17.10;99.90
41447;DHT22;27185;52.040;4.490;2023-05-10T09:29:07;17.30;99.90
41447;DHT22;27185;52.040;4.490;2023-05-10T09:31:53;17.40;99.90
41447;DHT22;27185;52.040;4.490;2023-05-10T09:34:41;17.60;99.90
41447;DHT22;27185;52.040;4.490;2023-05-10T09:37:31;17.80;99.90
41447;DHT22;27185;52.040;4.490;2023-05-10T09:40:18;18.00;99.90
41447;DHT22;27185;52.040;4.490;2023-05-10T09:43:07;18.10;99.90
41447;DHT22;27185;52.040;4.490;2023-05-10T09:45:53;18.40;99.90
41447;DHT22;27185;52.040;4.490;2023-05-10T09:48:46;18.50;99.90
41447;DHT22;27185;52.040;4.490;2023-05-10T09:51:34;18.70;99.90
41447;DHT22;27185;52.040;4.490;2023-05-10T09:54:20;18.90;99.90
41447;DHT22;27185;52.040;4.490;2023-05-10T09:57:19;19.30;99.90
41447;DHT22;27185;52.040;4.490;2023-05-10T10:00:06;19.60;99.90
41447;DHT22;27185;52.040;4.490;2023-05-10T10:02:56;19.80;99.90
41447;DHT22;27185;52.040;4.490;2023-05-10T10:05:43;20.00;99.90
41447;DHT22;27185;52.040;4.490;2023-05-10T10:08:29;20.20;99.90
41447;DHT22;27185;52.040;4.490;2023-05-10T10:11:15;20.30;99.90
41447;DHT22;27185;52.040;4.490;2023-05-10T10:14:01;20.20;99.90
41447;DHT22;27185;52.040;4.490;2023-05-10T10:16:47;20.20;99.90
41447;DHT22;27185;52.040;4.490;2023-05-10T10:19:34;20.00;99.90
41447;DHT22;27185;52.040;4.490;2023-05-10T10:22:22;19.90;99.90
41447;DHT22;27185;52.040;4.490;2023-05-10T10:25:10;19.70;99.90
41447;DHT22;27185;52.040;4.490;2023-05-10T10:28:23;19.50;99.90
41447;DHT22;27185;52.040;4.490;2023-05-10T10:34:26;18.90;99.90
41447;DHT22;27185;52.040;4.490;2023-05-10T10:37:13;18.80;99.90
41447;DHT22;27185;52.040;4.490;2023-05-10T10:39:59;18.60;99.90
41447;DHT22;27185;52.040;4.490;2023-05-10T10:42:45;18.40;99.90
41447;DHT22;27185;52.040;4.490;2023-05-10T10:45:39;18.40;99.90
41447;DHT22;27185;52.040;4.490;2023-05-10T10:48:25;18.30;99.90
41447;DHT22;27185;52.040;4.490;2023-05-10T10:51:13;18.20;99.90
41447;DHT22;27185;52.040;4.490;2023-05-10T10:54:09;18.10;99.90
41447;DHT22;27185;52.040;4.490;2023-05-10T10:57:11;18.00;99.90
41447;DHT22;27185;52.040;4.490;2023-05-10T11:00:28;18.00;99.90
41447;DHT22;27185;52.040;4.490;2023-05-10T11:03:14;17.90;99.90
41447;DHT22;27185;52.040;4.490;2023-05-10T11:06:04;17.90;99.90
41447;DHT22;27185;52.040;4.490;2023-05-10T11:08:49;17.90;99.90
41447;DHT22;27185;52.040;4.490;2023-05-10T11:11:54;17.90;99.90
41447;DHT22;27185;52.040;4.490;2023-05-10T11:14:43;17.90;99.90
41447;DHT22;27185;52.040;4.490;2023-05-10T11:17:35;17.90;99.90
41447;DHT22;27185;52.040;4.490;2023-05-10T11:20:20;17.90;99.90
41447;DHT22;27185;52.040;4.490;2023-05-10T11:23:13;17.80;99.90
41447;DHT22;27185;52.040;4.490;2023-05-10T11:26:01;17.80;99.90
41447;DHT22;27185;52.040;4.490;2023-05-10T11:28:48;17.80;99.90
41447;DHT22;27185;52.040;4.490;2023-05-10T11:31:33;17.80;99.90
41447;DHT22;27185;52.040;4.490;2023-05-10T11:34:24;17.80;99.90
41447;DHT22;27185;52.040;4.490;2023-05-10T11:37:10;17.80;99.90
41447;DHT22;27185;52.040;4.490;2023-05-10T11:39:55;17.90;99.90
41447;DHT22;27185;52.040;4.490;2023-05-10T11:42:41;17.90;99.90
41447;DHT22;27185;52.040;4.490;2023-05-10T11:45:26;17.90;99.90
41447;DHT22;27185;52.040;4.490;2023-05-10T11:48:14;17.90;99.90
41447;DHT22;27185;52.040;4.490;2023-05-10T11:51:02;17.90;99.90
41447;DHT22;27185;52.040;4.490;2023-05-10T11:53:49;18.00;99.90
41447;DHT22;27185;52.040;4.490;2023-05-10T11:56:40;18.10;99.90
41447;DHT22;27185;52.040;4.490;2023-05-10T11:59:25;18.20;99.90
41447;DHT22;27185;52.040;4.490;2023-05-10T12:02:13;18.30;99.90
41447;DHT22;27185;52.040;4.490;2023-05-10T12:04:58;18.20;99.90
41447;DHT22;27185;52.040;4.490;2023-05-10T12:07:44;18.30;99.90
41447;DHT22;27185;52.040;4.490;2023-05-10T12:10:34;18.30;99.90
41447;DHT22;27185;52.040;4.490;2023-05-10T12:13:20;18.30;99.90
41447;DHT22;27185;52.040;4.490;2023-05-10T12:16:20;18.40;99.90
41447;DHT22;27185;52.040;4.490;2023-05-10T12:19:05;18.60;99.90
41447;DHT22;27185;52.040;4.490;2023-05-10T12:21:51;18.70;99.90
41447;DHT22;27185;52.040;4.490;2023-05-10T12:24:37;19.00;99.90
41447;DHT22;27185;52.040;4.490;2023-05-10T12:27:24;19.10;99.90
41447;DHT22;27185;52.040;4.490;2023-05-10T12:30:09;19.20;99.90
41447;DHT22;27185;52.040;4.490;2023-05-10T12:33:12;19.30;99.90
41447;DHT22;27185;52.040;4.490;2023-05-10T12:35:59;19.20;99.90
41447;DHT22;27185;52.040;4.490;2023-05-10T12:38:45;19.20;99.90
41447;DHT22;27185;52.040;4.490;2023-05-10T12:41:33;19.10;99.90
41447;DHT22;27185;52.040;4.490;2023-05-10T12:44:19;18.90;99.90
41447;DHT22;27185;52.040;4.490;2023-05-10T12:47:04;18.70;99.90
41447;DHT22;27185;52.040;4.490;2023-05-10T12:49:51;18.60;99.90
41447;DHT22;27185;52.040;4.490;2023-05-10T12:52:36;18.50;99.90
41447;DHT22;27185;52.040;4.490;2023-05-10T12:55:22;18.50;99.90
41447;DHT22;27185;52.040;4.490;2023-05-10T12:58:08;18.50;99.90
41447;DHT22;27185;52.040;4.490;2023-05-10T13:00:53;18.70;99.90
41447;DHT22;27185;52.040;4.490;2023-05-10T13:03:39;18.70;99.90
41447;DHT22;27185;52.040;4.490;2023-05-10T13:06:24;18.80;99.90
41447;DHT22;27185;52.040;4.490;2023-05-10T13:09:10;18.80;99.90
41447;DHT22;27185;52.040;4.490;2023-05-10T13:11:56;18.80;99.90
41447;DHT22;27185;52.040;4.490;2023-05-10T13:14:42;18.90;99.90
41447;DHT22;27185;52.040;4.490;2023-05-10T13:17:27;19.00;99.90
41447;DHT22;27185;52.040;4.490;2023-05-10T13:20:13;19.00;99.90
41447;DHT22;27185;52.040;4.490;2023-05-10T13:22:58;19.00;99.90
41447;DHT22;27185;52.040;4.490;2023-05-10T13:25:44;18.90;99.90
41447;DHT22;27185;52.040;4.490;2023-05-10T13:28:29;18.80;99.90
41447;DHT22;27185;52.040;4.490;2023-05-10T13:31:15;18.70;99.90
41447;DHT22;27185;52.040;4.490;2023-05-10T13:34:01;18.50;99.90
41447;DHT22;27185;52.040;4.490;2023-05-10T13:36:47;18.40;99.90
41447;DHT22;27185;52.040;4.490;2023-05-10T13:39:34;18.20;99.90
41447;DHT22;27185;52.040;4.490;2023-05-10T13:42:19;18.20;99.90
41447;DHT22;27185;52.040;4.490;2023-05-10T13:45:06;18.00;99.90
41447;DHT22;27185;52.040;4.490;2023-05-10T13:47:51;17.90;99.90
41447;DHT22;27185;52.040;4.490;2023-05-10T13:50:37;17.80;99.90
41447;DHT22;27185;52.040;4.490;2023-05-10T13:53:23;17.80;99.90
41447;DHT22;27185;52.040;4.490;2023-05-10T13:56:09;17.70;99.90
41447;DHT22;27185;52.040;4.490;2023-05-10T13:58:56;17.70;99.90
41447;DHT22;27185;52.040;4.490;2023-05-10T14:01:43;17.60;99.90
41447;DHT22;27185;52.040;4.490;2023-05-10T14:04:29;17.60;99.90
41447;DHT22;27185;52.040;4.490;2023-05-10T14:07:15;17.60;99.90
41447;DHT22;27185;52.040;4.490;2023-05-10T14:10:01;17.60;99.90
41447;DHT22;27185;52.040;4.490;2023-05-10T14:12:46;17.70;99.90
41447;DHT22;27185;52.040;4.490;2023-05-10T14:15:32;17.70;99.90
41447;DHT22;27185;52.040;4.490;2023-05-10T14:18:17;17.70;99.90
41447;DHT22;27185;52.040;4.490;2023-05-10T14:21:03;17.80;99.90
41447;DHT22;27185;52.040;4.490;2023-05-10T14:23:49;17.80;99.90
41447;DHT22;27185;52.040;4.490;2023-05-10T14:26:34;17.90;99.90
41447;DHT22;27185;52.040;4.490;2023-05-10T14:29:21;17.90;99.90
41447;DHT22;27185;52.040;4.490;2023-05-10T14:32:07;18.00;99.90
41447;DHT22;27185;52.040;4.490;2023-05-10T14:34:33;18.10;99.90
41447;DHT22;27185;52.040;4.490;2023-05-10T14:37:19;18.10;99.90
41447;DHT22;27185;52.040;4.490;2023-05-10T14:40:05;18.20;99.90
41447;DHT22;27185;52.040;4.490;2023-05-10T14:42:51;18.20;99.90
41447;DHT22;27185;52.040;4.490;2023-05-10T14:45:38;18.40;99.90
41447;DHT22;27185;52.040;4.490;2023-05-10T14:48:24;18.50;99.90
41447;DHT22;27185;52.040;4.490;2023-05-10T14:51:09;18.50;99.90
41447;DHT22;27185;52.040;4.490;2023-05-10T14:53:55;18.60;99.90
41447;DHT22;27185;52.040;4.490;2023-05-10T14:56:41;18.70;99.90
41447;DHT22;27185;52.040;4.490;2023-05-10T14:59:27;18.70;99.90
41447;DHT22;27185;52.040;4.490;2023-05-10T15:02:12;18.80;99.90
41447;DHT22;27185;52.040;4.490;2023-05-10T15:04:58;18.80;99.90
41447;DHT22;27185;52.040;4.490;2023-05-10T15:07:44;18.80;99.90
41447;DHT22;27185;52.040;4.490;2023-05-10T15:10:30;18.80;99.90
41447;DHT22;27185;52.040;4.490;2023-05-10T15:13:15;18.80;99.90
41447;DHT22;27185;52.040;4.490;2023-05-10T15:16:01;18.80;99.90
41447;DHT22;27185;52.040;4.490;2023-05-10T15:18:47;18.80;99.90
41447;DHT22;27185;52.040;4.490;2023-05-10T15:21:33;18.90;99.90
41447;DHT22;27185;52.040;4.490;2023-05-10T15:24:24;18.90;99.90
41447;DHT22;27185;52.040;4.490;2023-05-10T15:27:09;19.00;99.90
41447;DHT22;27185;52.040;4.490;2023-05-10T15:29:55;19.00;99.90
41447;DHT22;27185;52.040;4.490;2023-05-10T15:32:41;19.00;99.90
41447;DHT22;27185;52.040;4.490;2023-05-10T15:35:27;19.00;99.90
41447;DHT22;27185;52.040;4.490;2023-05-10T15:38:13;19.00;99.90
41447;DHT22;27185;52.040;4.490;2023-05-10T15:40:59;19.00;99.90
41447;DHT22;27185;52.040;4.490;2023-05-10T15:43:45;19.10;99.90
41447;DHT22;27185;52.040;4.490;2023-05-10T15:46:30;19.10;99.90
41447;DHT22;27185;52.040;4.490;2023-05-10T15:49:16;19.10;99.90
41447;DHT22;27185;52.040;4.490;2023-05-10T15:52:01;19.10;99.90
41447;DHT22;27185;52.040;4.490;2023-05-10T15:54:47;19.00;99.90
41447;DHT22;27185;52.040;4.490;2023-05-10T15:57:32;19.00;99.90
41447;DHT22;27185;52.040;4.490;2023-05-10T16:00:18;18.90;99.90
41447;DHT22;27185;52.040;4.490;2023-05-10T16:03:04;18.90;99.90
41447;DHT22;27185;52.040;4.490;2023-05-10T16:05:50;18.90;99.90
41447;DHT22;27185;52.040;4.490;2023-05-10T16:08:36;18.90;99.90
41447;DHT22;27185;52.040;4.490;2023-05-10T16:11:22;18.90;99.90
41447;DHT22;27185;52.040;4.490;2023-05-10T16:14:07;18.90;99.90
41447;DHT22;27185;52.040;4.490;2023-05-10T16:16:53;18.90;99.90
41447;DHT22;27185;52.040;4.490;2023-05-10T16:19:38;18.90;99.90
41447;DHT22;27185;52.040;4.490;2023-05-10T16:22:24;18.90;99.90
41447;DHT22;27185;52.040;4.490;2023-05-10T16:25:11;18.90;99.90
41447;DHT22;27185;52.040;4.490;2023-05-10T16:27:57;18.80;99.90
41447;DHT22;27185;52.040;4.490;2023-05-10T16:30:43;18.70;99.90
41447;DHT22;27185;52.040;4.490;2023-05-10T16:33:28;18.70;99.90
41447;DHT22;27185;52.040;4.490;2023-05-10T16:36:14;18.60;99.90
41447;DHT22;27185;52.040;4.490;2023-05-10T16:39:00;18.60;99.90
41447;DHT22;27185;52.040;4.490;2023-05-10T16:41:46;18.60;99.90
41447;DHT22;27185;52.040;4.490;2023-05-10T16:44:31;18.50;99.90
41447;DHT22;27185;52.040;4.490;2023-05-10T16:47:17;18.50;99.90
41447;DHT22;27185;52.040;4.490;2023-05-10T16:50:04;18.40;99.90
41447;DHT22;27185;52.040;4.490;2023-05-10T16:52:50;18.30;99.90
41447;DHT22;27185;52.040;4.490;2023-05-10T16:55:35;18.30;99.90
41447;DHT22;27185;52.040;4.490;2023-05-10T16:58:21;18.20;99.90
41447;DHT22;27185;52.040;4.490;2023-05-10T17:01:06;18.10;99.90
41447;DHT22;27185;52.040;4.490;2023-05-10T17:03:52;18.10;99.90
41447;DHT22;27185;52.040;4.490;2023-05-10T17:06:37;18.10;99.90
41447;DHT22;27185;52.040;4.490;2023-05-10T17:09:03;18.00;99.90
41447;DHT22;27185;52.040;4.490;2023-05-10T17:11:50;18.00;99.90
41447;DHT22;27185;52.040;4.490;2023-05-10T17:14:36;17.90;99.90
41447;DHT22;27185;52.040;4.490;2023-05-10T17:17:22;17.90;99.90
41447;DHT22;27185;52.040;4.490;2023-05-10T17:20:08;17.80;99.90
41447;DHT22;27185;52.040;4.490;2023-05-10T17:22:54;17.80;99.90
41447;DHT22;27185;52.040;4.490;2023-05-10T17:25:39;17.80;99.90
41447;DHT22;27185;52.040;4.490;2023-05-10T17:28:26;17.70;99.90
41447;DHT22;27185;52.040;4.490;2023-05-10T17:31:12;17.60;99.90
41447;DHT22;27185;52.040;4.490;2023-05-10T17:33:58;17.60;99.90
41447;DHT22;27185;52.040;4.490;2023-05-10T17:36:44;17.50;99.90
41447;DHT22;27185;52.040;4.490;2023-05-10T17:39:30;17.50;99.90
41447;DHT22;27185;52.040;4.490;2023-05-10T17:42:17;17.40;99.90
41447;DHT22;27185;52.040;4.490;2023-05-10T17:45:04;17.40;99.90
41447;DHT22;27185;52.040;4.490;2023-05-10T17:47:50;17.40;99.90
41447;DHT22;27185;52.040;4.490;2023-05-10T17:50:35;17.30;99.90
41447;DHT22;27185;52.040;4.490;2023-05-10T17:53:21;17.30;99.90